sensor_id;sensor_type;location;lat;lon;timestamp;pressure;altitude;pressure_sealevel;temperature;humidity
56594;BME280;42474;51.660;5.824;2023-06-14T00:02:30;1013.7;;;19.4;38
56594;BME280;42474;51.660;5.824;2023-06-14T00:10:30;1013.8;;;19.3;38
56594;BME280;42474;51.660;5.824;2023-06-14T00:14:30;1013.7;;;19.2;38
56594;BME280;42474;51.660;5.824;2023-06-14T00:18:30;1013.7;;;19.2;38
56594;BME280;42474;51.660;5.824;2023-06-14T00:22:30;1013.8;;;19.2;38
56594;BME280;42474;51.660;5.824;2023-06-14T00:26:30;1013.7;;;19.1;38
56594;BME280;42474;51.660;5.824;2023-06-14T00:30:30;1013.7;;;19.1;38
56594;BME280;42474;51.660;5.824;2023-06-14T00:34:30;1013.8;;;19.1;38
56594;BME280;42474;51.660;5.824;2023-06-14T00:38:30;1013.8;;;19.1;38
56594;BME280;42474;51.660;5.824;2023-06-14T00:42:31;1013.8;;;19;38
56594;BME280;42474;51.660;5.824;2023-06-14T00:46:30;1013.9;;;18.9;38
56594;BME280;42474;51.660;5.824;2023-06-14T00:50:30;1013.9;;;18.9;38
56594;BME280;42474;51.660;5.824;2023-06-14T00:54:30;1013.9;;;18.9;38
56594;BME280;42474;51.660;5.824;2023-06-14T00:58:31;1013.9;;;18.8;38
56594;BME280;42474;51.660;5.824;2023-06-14T01:02:30;1013.9;;;18.8;38
56594;BME280;42474;51.660;5.824;2023-06-14T01:06:32;1013.9;;;18.8;38
56594;BME280;42474;51.660;5.824;2023-06-14T01:10:32;1014;;;18.8;38
56594;BME280;42474;51.660;5.824;2023-06-14T01:14:31;1014;;;18.8;38
56594;BME280;42474;51.660;5.824;2023-06-14T01:18:31;1014;;;18.7;38
56594;BME280;42474;51.660;5.824;2023-06-14T01:22:31;1014;;;18.7;38
56594;BME280;42474;51.660;5.824;2023-06-14T01:26:30;1014;;;18.6;38
56594;BME280;42474;51.660;5.824;2023-06-14T01:30:31;1014;;;18.6;38
56594;BME280;42474;51.660;5.824;2023-06-14T01:34:31;1014;;;18.5;38
56594;BME280;42474;51.660;5.824;2023-06-14T01:38:31;1014;;;18.4;38.5
56594;BME280;42474;51.660;5.824;2023-06-14T01:42:30;1014;;;18.4;38.5
56594;BME280;42474;51.660;5.824;2023-06-14T01:46:31;1014;;;18.3;38.5
56594;BME280;42474;51.660;5.824;2023-06-14T01:50:30;1014;;;18.2;38.5
56594;BME280;42474;51.660;5.824;2023-06-14T01:54:30;1014;;;18.1;38.5
56594;BME280;42474;51.660;5.824;2023-06-14T01:58:31;1014;;;18.1;39
56594;BME280;42474;51.660;5.824;2023-06-14T02:02:30;1014;;;18;39
56594;BME280;42474;51.660;5.824;2023-06-14T02:06:31;1014;;;17.9;39
56594;BME280;42474;51.660;5.824;2023-06-14T02:10:31;1014;;;17.8;39
56594;BME280;42474;51.660;5.824;2023-06-14T02:14:31;1014;;;17.7;39.5
56594;BME280;42474;51.660;5.824;2023-06-14T02:18:31;1014;;;17.7;39.5
56594;BME280;42474;51.660;5.824;2023-06-14T02:22:30;1013.9;;;17.6;39.5
56594;BME280;42474;51.660;5.824;2023-06-14T02:26:31;1014;;;17.5;39.5
56594;BME280;42474;51.660;5.824;2023-06-14T02:30:31;1014;;;17.5;40
56594;BME280;42474;51.660;5.824;2023-06-14T02:34:31;1014;;;17.4;40
56594;BME280;42474;51.660;5.824;2023-06-14T02:38:30;1014.1;;;17.4;40.5
56594;BME280;42474;51.660;5.824;2023-06-14T02:42:31;1014.1;;;17.3;40.5
56594;BME280;42474;51.660;5.824;2023-06-14T02:46:31;1014.1;;;17.3;40.5
56594;BME280;42474;51.660;5.824;2023-06-14T02:50:31;1014.1;;;17.2;40.5
56594;BME280;42474;51.660;5.824;2023-06-14T02:54:31;1014.1;;;17.1;40.5
56594;BME280;42474;51.660;5.824;2023-06-14T02:58:31;1014.1;;;17.1;40.5
56594;BME280;42474;51.660;5.824;2023-06-14T03:02:31;1014.2;;;17;41
56594;BME280;42474;51.660;5.824;2023-06-14T03:06:31;1014.2;;;17;41
56594;BME280;42474;51.660;5.824;2023-06-14T03:10:31;1014.3;;;16.9;41
56594;BME280;42474;51.660;5.824;2023-06-14T03:14:31;1014.3;;;16.9;41
56594;BME280;42474;51.660;5.824;2023-06-14T03:18:31;1014.3;;;16.8;41.5
56594;BME280;42474;51.660;5.824;2023-06-14T03:22:31;1014.3;;;16.8;41.5
56594;BME280;42474;51.660;5.824;2023-06-14T03:26:31;1014.4;;;16.7;41.5
56594;BME280;42474;51.660;5.824;2023-06-14T03:30:31;1014.4;;;16.7;41.5
56594;BME280;42474;51.660;5.824;2023-06-14T03:34:31;1014.4;;;16.6;42
56594;BME280;42474;51.660;5.824;2023-06-14T03:38:31;1014.5;;;16.6;42
56594;BME280;42474;51.660;5.824;2023-06-14T03:42:31;1014.5;;;16.7;42
56594;BME280;42474;51.660;5.824;2023-06-14T03:46:31;1014.6;;;16.7;42
56594;BME280;42474;51.660;5.824;2023-06-14T03:50:31;1014.6;;;16.6;42
56594;BME280;42474;51.660;5.824;2023-06-14T03:54:31;1014.6;;;16.6;42.5
56594;BME280;42474;51.660;5.824;2023-06-14T03:58:31;1014.6;;;16.6;42.5
56594;BME280;42474;51.660;5.824;2023-06-14T04:02:31;1014.6;;;16.6;42.5
56594;BME280;42474;51.660;5.824;2023-06-14T04:06:31;1014.6;;;16.6;42.5
56594;BME280;42474;51.660;5.824;2023-06-14T04:10:31;1014.6;;;16.6;43
56594;BME280;42474;51.660;5.824;2023-06-14T04:14:31;1014.7;;;16.6;43
56594;BME280;42474;51.660;5.824;2023-06-14T04:18:31;1014.7;;;16.6;43
56594;BME280;42474;51.660;5.824;2023-06-14T04:22:31;1014.8;;;16.7;43
56594;BME280;42474;51.660;5.824;2023-06-14T04:26:31;1014.8;;;16.7;43
56594;BME280;42474;51.660;5.824;2023-06-14T04:30:31;1014.8;;;16.7;43.5
56594;BME280;42474;51.660;5.824;2023-06-14T04:34:31;1014.8;;;16.8;43.5
56594;BME280;42474;51.660;5.824;2023-06-14T04:38:31;1014.8;;;16.9;43.5
56594;BME280;42474;51.660;5.824;2023-06-14T04:42:31;1014.9;;;17;44
56594;BME280;42474;51.660;5.824;2023-06-14T04:46:31;1014.9;;;17.2;44.5
56594;BME280;42474;51.660;5.824;2023-06-14T04:50:31;1014.9;;;17.7;45
56594;BME280;42474;51.660;5.824;2023-06-14T04:54:31;1014.8;;;18.2;44.5
56594;BME280;42474;51.660;5.824;2023-06-14T04:58:31;1014.8;;;18.6;43.5
56594;BME280;42474;51.660;5.824;2023-06-14T05:02:31;1014.8;;;18.8;43
56594;BME280;42474;51.660;5.824;2023-06-14T05:06:31;1014.9;;;18.9;42.5
56594;BME280;42474;51.660;5.824;2023-06-14T05:10:31;1014.9;;;18.9;42.5
56594;BME280;42474;51.660;5.824;2023-06-14T05:14:31;1015;;;18.9;42.5
56594;BME280;42474;51.660;5.824;2023-06-14T05:18:31;1015;;;18.9;42.5
56594;BME280;42474;51.660;5.824;2023-06-14T05:22:31;1015;;;18.9;42.5
56594;BME280;42474;51.660;5.824;2023-06-14T05:26:31;1015.1;;;19;42.5
56594;BME280;42474;51.660;5.824;2023-06-14T05:30:31;1015.1;;;19.1;42.5
56594;BME280;42474;51.660;5.824;2023-06-14T05:34:31;1015.1;;;19.1;43
56594;BME280;42474;51.660;5.824;2023-06-14T05:38:31;1015.1;;;19.2;42.5
56594;BME280;42474;51.660;5.824;2023-06-14T05:42:31;1015.2;;;19.3;42.5
56594;BME280;42474;51.660;5.824;2023-06-14T05:46:31;1015.2;;;19.4;42.5
56594;BME280;42474;51.660;5.824;2023-06-14T05:50:31;1015.2;;;19.5;42.5
56594;BME280;42474;51.660;5.824;2023-06-14T05:54:31;1015.3;;;19.6;42.5
56594;BME280;42474;51.660;5.824;2023-06-14T05:58:31;1015.3;;;19.7;42.5
56594;BME280;42474;51.660;5.824;2023-06-14T06:02:31;1015.4;;;19.8;42.5
56594;BME280;42474;51.660;5.824;2023-06-14T06:06:31;1015.4;;;19.9;42
56594;BME280;42474;51.660;5.824;2023-06-14T06:10:31;1015.4;;;20.1;42.5
56594;BME280;42474;51.660;5.824;2023-06-14T06:14:31;1015.4;;;20.2;42
56594;BME280;42474;51.660;5.824;2023-06-14T06:18:31;1015.4;;;20.4;42
56594;BME280;42474;51.660;5.824;2023-06-14T06:22:31;1015.4;;;20.5;41.5
56594;BME280;42474;51.660;5.824;2023-06-14T06:26:31;1015.5;;;20.6;41.5
56594;BME280;42474;51.660;5.824;2023-06-14T06:30:31;1015.5;;;20.7;41.5
56594;BME280;42474;51.660;5.824;2023-06-14T06:34:31;1015.6;;;20.9;41.5
56594;BME280;42474;51.660;5.824;2023-06-14T06:38:31;1015.6;;;21.2;41
56594;BME280;42474;51.660;5.824;2023-06-14T06:42:31;1015.6;;;21.4;41
56594;BME280;42474;51.660;5.824;2023-06-14T06:46:31;1015.6;;;21.6;40.5
56594;BME280;42474;51.660;5.824;2023-06-14T06:50:31;1015.6;;;21.9;40.5
56594;BME280;42474;51.660;5.824;2023-06-14T06:54:31;1015.7;;;22.2;40
56594;BME280;42474;51.660;5.824;2023-06-14T06:58:31;1015.7;;;22.4;40
56594;BME280;42474;51.660;5.824;2023-06-14T07:02:31;1015.7;;;22.6;39
56594;BME280;42474;51.660;5.824;2023-06-14T07:06:31;1015.7;;;22.7;39
56594;BME280;42474;51.660;5.824;2023-06-14T07:10:31;1015.8;;;22.9;38.5
56594;BME280;42474;51.660;5.824;2023-06-14T07:14:31;1015.8;;;23;38
56594;BME280;42474;51.660;5.824;2023-06-14T07:18:31;1015.8;;;23;38
56594;BME280;42474;51.660;5.824;2023-06-14T07:22:31;1015.8;;;23.1;37.5
56594;BME280;42474;51.660;5.824;2023-06-14T07:26:31;1015.8;;;23.2;37
56594;BME280;42474;51.660;5.824;2023-06-14T07:30:31;1015.9;;;23.2;37
56594;BME280;42474;51.660;5.824;2023-06-14T07:34:31;1015.9;;;23.3;37
56594;BME280;42474;51.660;5.824;2023-06-14T07:38:31;1015.9;;;23.4;37
56594;BME280;42474;51.660;5.824;2023-06-14T07:42:31;1015.9;;;23.5;36
56594;BME280;42474;51.660;5.824;2023-06-14T07:46:31;1015.9;;;23.5;36
56594;BME280;42474;51.660;5.824;2023-06-14T07:50:31;1015.9;;;23.6;36.5
56594;BME280;42474;51.660;5.824;2023-06-14T07:54:31;1016;;;23.9;36.5
56594;BME280;42474;51.660;5.824;2023-06-14T07:58:31;1016;;;24.1;36
56594;BME280;42474;51.660;5.824;2023-06-14T08:02:31;1016.1;;;24.2;35.5
56594;BME280;42474;51.660;5.824;2023-06-14T08:06:31;1016.1;;;24.3;35.5
56594;BME280;42474;51.660;5.824;2023-06-14T08:10:32;1016.1;;;24.4;35
56594;BME280;42474;51.660;5.824;2023-06-14T08:14:31;1016.1;;;24.5;34.5
56594;BME280;42474;51.660;5.824;2023-06-14T08:18:31;1016.1;;;24.6;34
56594;BME280;42474;51.660;5.824;2023-06-14T08:22:31;1016.1;;;24.7;34
56594;BME280;42474;51.660;5.824;2023-06-14T08:26:32;1016.1;;;24.8;33.5
56594;BME280;42474;51.660;5.824;2023-06-14T08:30:31;1016.1;;;24.9;32.5
56594;BME280;42474;51.660;5.824;2023-06-14T08:34:31;1016.2;;;24.8;32
56594;BME280;42474;51.660;5.824;2023-06-14T08:38:32;1016.2;;;24.7;32
56594;BME280;42474;51.660;5.824;2023-06-14T08:42:31;1016.2;;;24.7;32
56594;BME280;42474;51.660;5.824;2023-06-14T08:46:32;1016.2;;;24.8;31.5
56594;BME280;42474;51.660;5.824;2023-06-14T08:50:32;1016.1;;;24.8;31.5
56594;BME280;42474;51.660;5.824;2023-06-14T08:54:31;1016.1;;;25;31
56594;BME280;42474;51.660;5.824;2023-06-14T08:58:31;1016.1;;;25.1;31
56594;BME280;42474;51.660;5.824;2023-06-14T09:02:32;1016.1;;;25;31
56594;BME280;42474;51.660;5.824;2023-06-14T09:06:31;1016.1;;;25.2;30.5
56594;BME280;42474;51.660;5.824;2023-06-14T09:10:32;1016.1;;;25.2;30.5
56594;BME280;42474;51.660;5.824;2023-06-14T09:14:31;1016.1;;;25.3;31
56594;BME280;42474;51.660;5.824;2023-06-14T09:18:34;1016.1;;;25.4;30.5
56594;BME280;42474;51.660;5.824;2023-06-14T09:22:31;1016.1;;;25.5;31
56594;BME280;42474;51.660;5.824;2023-06-14T09:26:32;1016.1;;;25.6;31
56594;BME280;42474;51.660;5.824;2023-06-14T09:30:31;1016.2;;;25.7;30.5
56594;BME280;42474;51.660;5.824;2023-06-14T09:34:32;1016.1;;;25.7;30
56594;BME280;42474;51.660;5.824;2023-06-14T09:38:31;1016.2;;;25.8;30
56594;BME280;42474;51.660;5.824;2023-06-14T09:42:32;1016.2;;;25.7;29
56594;BME280;42474;51.660;5.824;2023-06-14T09:46:31;1016.2;;;25.8;30
56594;BME280;42474;51.660;5.824;2023-06-14T09:50:32;1016.2;;;25.9;29.5
56594;BME280;42474;51.660;5.824;2023-06-14T09:54:31;1016.1;;;25.9;30
56594;BME280;42474;51.660;5.824;2023-06-14T09:58:32;1016.1;;;26;30
56594;BME280;42474;51.660;5.824;2023-06-14T10:02:33;1016.1;;;26.1;30
56594;BME280;42474;51.660;5.824;2023-06-14T10:06:32;1016.1;;;26.1;29.5
56594;BME280;42474;51.660;5.824;2023-06-14T10:10:31;1016.1;;;26.1;29.5
56594;BME280;42474;51.660;5.824;2023-06-14T10:14:32;1016.1;;;26.2;30
56594;BME280;42474;51.660;5.824;2023-06-14T10:18:32;1016;;;26.2;29.5
56594;BME280;42474;51.660;5.824;2023-06-14T10:22:32;1016;;;26.3;29.5
56594;BME280;42474;51.660;5.824;2023-06-14T10:26:31;1016;;;26.3;29.5
56594;BME280;42474;51.660;5.824;2023-06-14T10:30:32;1016;;;26.4;30
56594;BME280;42474;51.660;5.824;2023-06-14T10:34:31;1016;;;26.4;30
56594;BME280;42474;51.660;5.824;2023-06-14T10:38:31;1016;;;26.4;30
56594;BME280;42474;51.660;5.824;2023-06-14T10:42:32;1016;;;26.4;29.5
56594;BME280;42474;51.660;5.824;2023-06-14T10:46:31;1016.1;;;26.4;30
56594;BME280;42474;51.660;5.824;2023-06-14T10:50:32;1016;;;26.4;29.5
56594;BME280;42474;51.660;5.824;2023-06-14T10:54:31;1016;;;26.4;30.5
56594;BME280;42474;51.660;5.824;2023-06-14T10:58:31;1016;;;26.5;30
56594;BME280;42474;51.660;5.824;2023-06-14T11:02:39;1016.2;;;26.4;29
56594;BME280;42474;51.660;5.824;2023-06-14T11:06:32;1016.1;;;26.3;29.5
56594;BME280;42474;51.660;5.824;2023-06-14T11:10:34;1016.1;;;26.5;29.5
56594;BME280;42474;51.660;5.824;2023-06-14T11:14:31;1016;;;26.5;29.5
56594;BME280;42474;51.660;5.824;2023-06-14T11:18:31;1016;;;26.5;29
56594;BME280;42474;51.660;5.824;2023-06-14T11:22:38;1016;;;26.5;29
56594;BME280;42474;51.660;5.824;2023-06-14T11:26:31;1016.1;;;26.5;29
56594;BME280;42474;51.660;5.824;2023-06-14T11:30:31;1016.1;;;26.6;29
56594;BME280;42474;51.660;5.824;2023-06-14T11:34:31;1016.1;;;26.6;29
56594;BME280;42474;51.660;5.824;2023-06-14T11:38:34;1016;;;26.6;28.5
56594;BME280;42474;51.660;5.824;2023-06-14T11:42:31;1015.9;;;26.6;28.5
56594;BME280;42474;51.660;5.824;2023-06-14T11:46:31;1016;;;26.7;28.5
56594;BME280;42474;51.660;5.824;2023-06-14T11:50:31;1016;;;26.8;29.5
56594;BME280;42474;51.660;5.824;2023-06-14T11:54:31;1016;;;26.9;29
56594;BME280;42474;51.660;5.824;2023-06-14T11:58:31;1016;;;27.1;28.5
56594;BME280;42474;51.660;5.824;2023-06-14T12:02:31;1016;;;27.1;28.5
56594;BME280;42474;51.660;5.824;2023-06-14T12:06:31;1015.9;;;27.1;28.5
56594;BME280;42474;51.660;5.824;2023-06-14T12:10:31;1016;;;27.1;28
56594;BME280;42474;51.660;5.824;2023-06-14T12:14:31;1015.9;;;27;28
56594;BME280;42474;51.660;5.824;2023-06-14T12:18:31;1015.9;;;27;28.5
56594;BME280;42474;51.660;5.824;2023-06-14T12:22:31;1015.9;;;27.1;28.5
56594;BME280;42474;51.660;5.824;2023-06-14T12:26:31;1016;;;27.1;28
56594;BME280;42474;51.660;5.824;2023-06-14T12:30:31;1016;;;27;28
56594;BME280;42474;51.660;5.824;2023-06-14T12:34:31;1016;;;27;27.5
56594;BME280;42474;51.660;5.824;2023-06-14T12:38:31;1015.9;;;26.9;27.5
56594;BME280;42474;51.660;5.824;2023-06-14T12:42:31;1015.9;;;27.1;28
56594;BME280;42474;51.660;5.824;2023-06-14T12:46:31;1015.9;;;27.3;28
56594;BME280;42474;51.660;5.824;2023-06-14T12:50:31;1015.9;;;27.5;28
56594;BME280;42474;51.660;5.824;2023-06-14T12:54:31;1015.9;;;27.4;27
56594;BME280;42474;51.660;5.824;2023-06-14T12:58:31;1015.9;;;27.3;27.5
56594;BME280;42474;51.660;5.824;2023-06-14T13:02:31;1015.9;;;27.4;28
56594;BME280;42474;51.660;5.824;2023-06-14T13:06:31;1015.9;;;27.5;27.5
56594;BME280;42474;51.660;5.824;2023-06-14T13:10:31;1015.9;;;27.6;27.5
56594;BME280;42474;51.660;5.824;2023-06-14T13:14:31;1015.9;;;27.7;27
56594;BME280;42474;51.660;5.824;2023-06-14T13:18:31;1015.9;;;27.8;27
56594;BME280;42474;51.660;5.824;2023-06-14T13:22:31;1015.9;;;27.7;26.5
56594;BME280;42474;51.660;5.824;2023-06-14T13:26:31;1016;;;27.6;26.5
56594;BME280;42474;51.660;5.824;2023-06-14T13:30:31;1016;;;27.7;26.5
56594;BME280;42474;51.660;5.824;2023-06-14T13:34:31;1016;;;27.6;26.5
56594;BME280;42474;51.660;5.824;2023-06-14T13:38:31;1016;;;27.6;26.5
56594;BME280;42474;51.660;5.824;2023-06-14T13:42:31;1015.9;;;27.7;27
56594;BME280;42474;51.660;5.824;2023-06-14T13:46:31;1015.9;;;27.9;27
56594;BME280;42474;51.660;5.824;2023-06-14T13:50:31;1015.8;;;28.1;27
56594;BME280;42474;51.660;5.824;2023-06-14T13:54:31;1015.9;;;28.2;26.5
56594;BME280;42474;51.660;5.824;2023-06-14T13:58:31;1015.8;;;28.2;26
56594;BME280;42474;51.660;5.824;2023-06-14T14:02:31;1015.8;;;28.3;26.5
56594;BME280;42474;51.660;5.824;2023-06-14T14:06:31;1015.7;;;28.3;26
56594;BME280;42474;51.660;5.824;2023-06-14T14:10:31;1015.7;;;28.3;26
56594;BME280;42474;51.660;5.824;2023-06-14T14:14:32;1015.7;;;28.2;26
56594;BME280;42474;51.660;5.824;2023-06-14T14:18:31;1015.8;;;28.4;26.5
56594;BME280;42474;51.660;5.824;2023-06-14T14:22:31;1015.8;;;28.5;26.5
56594;BME280;42474;51.660;5.824;2023-06-14T14:26:31;1015.7;;;28.6;26.5
56594;BME280;42474;51.660;5.824;2023-06-14T14:30:31;1015.7;;;28.6;26.5
56594;BME280;42474;51.660;5.824;2023-06-14T14:34:31;1015.7;;;28.7;26.5
56594;BME280;42474;51.660;5.824;2023-06-14T14:38:31;1015.7;;;28.7;26
56594;BME280;42474;51.660;5.824;2023-06-14T14:42:31;1015.7;;;28.5;26
56594;BME280;42474;51.660;5.824;2023-06-14T14:46:31;1015.7;;;28.5;26
56594;BME280;42474;51.660;5.824;2023-06-14T14:50:31;1015.7;;;28.6;26.5
56594;BME280;42474;51.660;5.824;2023-06-14T14:54:31;1015.7;;;28.8;26
56594;BME280;42474;51.660;5.824;2023-06-14T14:58:31;1015.6;;;28.9;26
56594;BME280;42474;51.660;5.824;2023-06-14T15:02:31;1015.6;;;29.1;25.5
56594;BME280;42474;51.660;5.824;2023-06-14T15:06:31;1015.7;;;29.1;25.5
56594;BME280;42474;51.660;5.824;2023-06-14T15:10:31;1015.6;;;29.4;26
56594;BME280;42474;51.660;5.824;2023-06-14T15:14:31;1015.7;;;29.7;25.5
56594;BME280;42474;51.660;5.824;2023-06-14T15:18:31;1015.7;;;29.8;25
56594;BME280;42474;51.660;5.824;2023-06-14T15:22:31;1015.6;;;29.9;25
56594;BME280;42474;51.660;5.824;2023-06-14T15:26:31;1015.6;;;30.1;24.5
56594;BME280;42474;51.660;5.824;2023-06-14T15:30:31;1015.6;;;30;25
56594;BME280;42474;51.660;5.824;2023-06-14T15:34:32;1015.6;;;30.2;25
56594;BME280;42474;51.660;5.824;2023-06-14T15:38:31;1015.7;;;30.3;24.5
56594;BME280;42474;51.660;5.824;2023-06-14T15:42:31;1015.7;;;30.4;25
56594;BME280;42474;51.660;5.824;2023-06-14T15:46:31;1015.7;;;30.4;24.5
56594;BME280;42474;51.660;5.824;2023-06-14T15:50:31;1015.6;;;30.5;25
56594;BME280;42474;51.660;5.824;2023-06-14T15:54:31;1015.6;;;30.5;24
56594;BME280;42474;51.660;5.824;2023-06-14T15:58:31;1015.6;;;30.2;24
56594;BME280;42474;51.660;5.824;2023-06-14T16:02:31;1015.6;;;30;24.5
56594;BME280;42474;51.660;5.824;2023-06-14T16:06:31;1015.6;;;29.8;24.5
56594;BME280;42474;51.660;5.824;2023-06-14T16:10:31;1015.5;;;29.9;24.5
56594;BME280;42474;51.660;5.824;2023-06-14T16:14:31;1015.6;;;30.2;25
56594;BME280;42474;51.660;5.824;2023-06-14T16:18:31;1015.5;;;30.5;24.5
56594;BME280;42474;51.660;5.824;2023-06-14T16:22:31;1015.5;;;30.8;24
56594;BME280;42474;51.660;5.824;2023-06-14T16:26:31;1015.5;;;30.8;23.5
56594;BME280;42474;51.660;5.824;2023-06-14T16:30:31;1015.6;;;30.7;23.5
56594;BME280;42474;51.660;5.824;2023-06-14T16:34:36;1015.6;;;30.7;23.5
56594;BME280;42474;51.660;5.824;2023-06-14T16:38:31;1015.5;;;30.7;23.5
56594;BME280;42474;51.660;5.824;2023-06-14T16:42:31;1015.6;;;30.6;24
56594;BME280;42474;51.660;5.824;2023-06-14T16:46:32;1015.6;;;30.6;24
56594;BME280;42474;51.660;5.824;2023-06-14T16:50:31;1015.6;;;30.6;24
56594;BME280;42474;51.660;5.824;2023-06-14T16:54:31;1015.7;;;30.4;24
56594;BME280;42474;51.660;5.824;2023-06-14T16:58:31;1015.7;;;30.2;23.5
56594;BME280;42474;51.660;5.824;2023-06-14T17:02:31;1015.7;;;30.1;24
56594;BME280;42474;51.660;5.824;2023-06-14T17:06:31;1015.7;;;29.9;24
56594;BME280;42474;51.660;5.824;2023-06-14T17:10:31;1015.8;;;29.9;24.5
56594;BME280;42474;51.660;5.824;2023-06-14T17:14:31;1015.8;;;29.9;24
56594;BME280;42474;51.660;5.824;2023-06-14T17:18:32;1015.8;;;29.8;24
56594;BME280;42474;51.660;5.824;2023-06-14T17:22:31;1015.9;;;30;24
56594;BME280;42474;51.660;5.824;2023-06-14T17:26:31;1015.9;;;30.1;24
56594;BME280;42474;51.660;5.824;2023-06-14T17:30:31;1015.9;;;30.5;24
56594;BME280;42474;51.660;5.824;2023-06-14T17:34:31;1015.9;;;30.6;23.5
56594;BME280;42474;51.660;5.824;2023-06-14T17:38:31;1015.9;;;30.6;23.5
56594;BME280;42474;51.660;5.824;2023-06-14T17:42:31;1015.9;;;30.7;23.5
56594;BME280;42474;51.660;5.824;2023-06-14T17:46:31;1015.9;;;30.8;23.5
56594;BME280;42474;51.660;5.824;2023-06-14T17:50:31;1015.9;;;30.9;23.5
56594;BME280;42474;51.660;5.824;2023-06-14T17:54:31;1015.9;;;30.9;23.5
56594;BME280;42474;51.660;5.824;2023-06-14T17:58:31;1016;;;30.6;23.5
56594;BME280;42474;51.660;5.824;2023-06-14T18:02:31;1016;;;30.2;23.5
56594;BME280;42474;51.660;5.824;2023-06-14T18:06:31;1016.1;;;29.8;24
56594;BME280;42474;51.660;5.824;2023-06-14T18:10:31;1016.1;;;29.4;24
56594;BME280;42474;51.660;5.824;2023-06-14T18:14:31;1016.2;;;29.2;24.5
56594;BME280;42474;51.660;5.824;2023-06-14T18:18:31;1016.2;;;28.9;25
56594;BME280;42474;51.660;5.824;2023-06-14T18:22:31;1016.2;;;28.8;25
56594;BME280;42474;51.660;5.824;2023-06-14T18:26:31;1016.2;;;28.9;25.5
56594;BME280;42474;51.660;5.824;2023-06-14T18:30:31;1016.3;;;28.9;25.5
56594;BME280;42474;51.660;5.824;2023-06-14T18:34:31;1016.3;;;28.7;25.5
56594;BME280;42474;51.660;5.824;2023-06-14T18:38:31;1016.2;;;28.5;26
56594;BME280;42474;51.660;5.824;2023-06-14T18:42:31;1016.3;;;28.2;26
56594;BME280;42474;51.660;5.824;2023-06-14T18:46:31;1016.3;;;27.9;26
56594;BME280;42474;51.660;5.824;2023-06-14T18:50:31;1016.3;;;27.6;26.5
56594;BME280;42474;51.660;5.824;2023-06-14T18:54:31;1016.3;;;27.4;27
56594;BME280;42474;51.660;5.824;2023-06-14T18:58:31;1016.4;;;27.1;27.5
56594;BME280;42474;51.660;5.824;2023-06-14T19:02:31;1016.4;;;26.8;27.5
56594;BME280;42474;51.660;5.824;2023-06-14T19:06:31;1016.4;;;26.5;28
56594;BME280;42474;51.660;5.824;2023-06-14T19:10:31;1016.5;;;26;28.5
56594;BME280;42474;51.660;5.824;2023-06-14T19:14:31;1016.5;;;25.6;29
56594;BME280;42474;51.660;5.824;2023-06-14T19:18:32;1016.6;;;25.3;29
56594;BME280;42474;51.660;5.824;2023-06-14T19:22:31;1016.6;;;24.9;29.5
56594;BME280;42474;51.660;5.824;2023-06-14T19:26:31;1016.6;;;24.7;30
56594;BME280;42474;51.660;5.824;2023-06-14T19:30:32;1016.6;;;24.5;29.5
56594;BME280;42474;51.660;5.824;2023-06-14T19:34:31;1016.7;;;24.3;30.5
56594;BME280;42474;51.660;5.824;2023-06-14T19:38:31;1016.7;;;24;30.5
56594;BME280;42474;51.660;5.824;2023-06-14T19:42:31;1016.7;;;23.9;31
56594;BME280;42474;51.660;5.824;2023-06-14T19:46:31;1016.8;;;23.7;31.5
56594;BME280;42474;51.660;5.824;2023-06-14T19:50:31;1016.9;;;23.5;31.5
56594;BME280;42474;51.660;5.824;2023-06-14T19:54:31;1016.9;;;23.4;32
56594;BME280;42474;51.660;5.824;2023-06-14T20:02:31;1017;;;23.1;32
56594;BME280;42474;51.660;5.824;2023-06-14T20:06:31;1017;;;23;32.5
56594;BME280;42474;51.660;5.824;2023-06-14T20:10:31;1017.1;;;22.8;32.5
56594;BME280;42474;51.660;5.824;2023-06-14T20:14:31;1017;;;22.7;32.5
56594;BME280;42474;51.660;5.824;2023-06-14T20:18:31;1017.1;;;22.6;33
56594;BME280;42474;51.660;5.824;2023-06-14T20:22:31;1017.1;;;22.4;33
56594;BME280;42474;51.660;5.824;2023-06-14T20:26:31;1017.1;;;22.3;33.5
56594;BME280;42474;51.660;5.824;2023-06-14T20:30:31;1017.1;;;22.2;33.5
56594;BME280;42474;51.660;5.824;2023-06-14T20:34:31;1017.1;;;22;34
56594;BME280;42474;51.660;5.824;2023-06-14T20:38:31;1017.2;;;21.9;34
56594;BME280;42474;51.660;5.824;2023-06-14T20:42:31;1017.2;;;21.8;34.5
56594;BME280;42474;51.660;5.824;2023-06-14T20:46:31;1017.2;;;21.7;34.5
56594;BME280;42474;51.660;5.824;2023-06-14T20:50:31;1017.3;;;21.6;35
56594;BME280;42474;51.660;5.824;2023-06-14T20:54:31;1017.3;;;21.5;35
56594;BME280;42474;51.660;5.824;2023-06-14T20:58:31;1017.4;;;21.4;35.5
56594;BME280;42474;51.660;5.824;2023-06-14T21:02:31;1017.4;;;21.3;35.5
56594;BME280;42474;51.660;5.824;2023-06-14T21:06:31;1017.4;;;21.2;36
56594;BME280;42474;51.660;5.824;2023-06-14T21:10:31;1017.4;;;21.1;36
56594;BME280;42474;51.660;5.824;2023-06-14T21:14:31;1017.5;;;21;36.5
56594;BME280;42474;51.660;5.824;2023-06-14T21:18:31;1017.5;;;21;36.5
56594;BME280;42474;51.660;5.824;2023-06-14T21:22:32;1017.5;;;20.9;36.5
56594;BME280;42474;51.660;5.824;2023-06-14T21:26:31;1017.5;;;20.8;37
56594;BME280;42474;51.660;5.824;2023-06-14T21:30:32;1017.5;;;20.8;37
56594;BME280;42474;51.660;5.824;2023-06-14T21:34:31;1017.5;;;20.7;37
56594;BME280;42474;51.660;5.824;2023-06-14T21:38:31;1017.5;;;20.7;37.5
56594;BME280;42474;51.660;5.824;2023-06-14T21:42:31;1017.5;;;20.6;37.5
56594;BME280;42474;51.660;5.824;2023-06-14T21:46:31;1017.5;;;20.6;37.5
56594;BME280;42474;51.660;5.824;2023-06-14T21:50:31;1017.5;;;20.5;37.5
56594;BME280;42474;51.660;5.824;2023-06-14T21:54:31;1017.5;;;20.4;38
56594;BME280;42474;51.660;5.824;2023-06-14T21:58:31;1017.5;;;20.3;38
56594;BME280;42474;51.660;5.824;2023-06-14T22:02:31;1017.5;;;20.3;38.5
56594;BME280;42474;51.660;5.824;2023-06-14T22:06:31;1017.6;;;20.2;38.5
56594;BME280;42474;51.660;5.824;2023-06-14T22:10:31;1017.6;;;20.1;38.5
56594;BME280;42474;51.660;5.824;2023-06-14T22:14:31;1017.6;;;20;39
56594;BME280;42474;51.660;5.824;2023-06-14T22:18:31;1017.6;;;19.9;39
56594;BME280;42474;51.660;5.824;2023-06-14T22:22:31;1017.6;;;19.9;39
56594;BME280;42474;51.660;5.824;2023-06-14T22:26:31;1017.6;;;19.8;39.5
56594;BME280;42474;51.660;5.824;2023-06-14T22:30:31;1017.7;;;19.7;39.5
56594;BME280;42474;51.660;5.824;2023-06-14T22:34:31;1017.7;;;19.7;39.5
56594;BME280;42474;51.660;5.824;2023-06-14T22:38:31;1017.7;;;19.6;40
56594;BME280;42474;51.660;5.824;2023-06-14T22:42:31;1017.7;;;19.6;40
56594;BME280;42474;51.660;5.824;2023-06-14T22:46:31;1017.7;;;19.5;40.5
56594;BME280;42474;51.660;5.824;2023-06-14T22:50:32;1017.7;;;19.4;40.5
56594;BME280;42474;51.660;5.824;2023-06-14T22:54:31;1017.7;;;19.3;40.5
56594;BME280;42474;51.660;5.824;2023-06-14T22:58:31;1017.7;;;19.1;41